createdAt,value
2017-07-05T00:00:23.093Z,15.7
2017-07-05T00:01:25.849Z,15.4
2017-07-05T00:02:28.357Z,15.3
2017-07-05T00:03:30.838Z,15.3
2017-07-05T00:04:33.311Z,15.3
2017-07-05T00:05:35.796Z,15.4
2017-07-05T00:06:38.431Z,15.5
2017-07-05T00:07:41.078Z,15.6
2017-07-05T00:08:43.614Z,15.7
2017-07-05T00:09:46.120Z,15.7
2017-07-05T00:10:48.649Z,15.8
2017-07-05T00:11:51.128Z,15.8
2017-07-05T00:12:53.590Z,15.7
2017-07-05T00:13:56.101Z,15.9
2017-07-05T00:14:58.614Z,15.9
2017-07-05T00:16:01.036Z,16
2017-07-05T00:17:04.661Z,16
2017-07-05T00:18:07.234Z,15.9
2017-07-05T00:19:10.146Z,15.6
2017-07-05T00:20:12.609Z,15.9
2017-07-05T00:21:16.503Z,15.9
2017-07-05T00:22:21.623Z,16.1
2017-07-05T00:23:24.138Z,15.9
2017-07-05T00:24:26.656Z,15.9
2017-07-05T00:25:29.145Z,15.8
2017-07-05T00:26:31.590Z,15.9
2017-07-05T00:27:34.031Z,16.1
2017-07-05T00:28:36.572Z,16.2
2017-07-05T00:29:39.164Z,16.3
2017-07-05T00:30:41.822Z,16.3
2017-07-05T00:31:44.333Z,16.2
2017-07-05T00:32:46.842Z,16.2
2017-07-05T00:33:49.344Z,16.2
2017-07-05T00:34:51.909Z,16.2
2017-07-05T00:35:54.625Z,16.2
2017-07-05T00:36:57.203Z,16.2
2017-07-05T00:37:59.678Z,16.3
2017-07-05T00:39:02.162Z,16.3
2017-07-05T00:40:04.838Z,16.3
2017-07-05T00:41:07.274Z,16.4
2017-07-05T00:42:09.745Z,16.4
2017-07-05T00:43:12.269Z,16.2
2017-07-05T00:44:14.745Z,16.2
2017-07-05T00:45:17.240Z,16.3
2017-07-05T00:46:19.666Z,16.1
2017-07-05T00:47:22.141Z,15.9
2017-07-05T00:48:24.588Z,16.1
2017-07-05T00:49:27.061Z,16.2
2017-07-05T00:50:29.516Z,16.2
2017-07-05T00:51:31.967Z,16.2
2017-07-05T00:52:34.552Z,16.1
2017-07-05T00:53:37.169Z,16.3
2017-07-05T00:54:39.630Z,16.2
2017-07-05T00:55:42.080Z,16.2
2017-07-05T00:56:44.510Z,16.3
2017-07-05T00:57:46.983Z,16.2
2017-07-05T00:58:49.461Z,16.2
2017-07-05T00:59:51.966Z,16.2
2017-07-05T01:00:54.407Z,16.1
2017-07-05T01:01:56.948Z,16.2
2017-07-05T01:02:59.388Z,16.1
2017-07-05T01:04:02.008Z,16.1
2017-07-05T01:05:04.417Z,16.1
2017-07-05T01:06:06.916Z,16.2
2017-07-05T01:07:09.398Z,16.2
2017-07-05T01:08:11.910Z,15.9
2017-07-05T01:09:14.358Z,15.9
2017-07-05T01:10:16.866Z,16
2017-07-05T01:11:19.352Z,16
2017-07-05T01:12:21.803Z,15.9
2017-07-05T01:13:24.936Z,15.8
2017-07-05T01:14:27.716Z,16
2017-07-05T01:15:30.236Z,16.1
2017-07-05T01:16:32.820Z,16.1
2017-07-05T01:17:35.285Z,16.1
2017-07-05T01:18:38.056Z,16.1
2017-07-05T01:19:40.476Z,16.1
2017-07-05T01:20:42.925Z,16.2
2017-07-05T01:21:45.356Z,16.2
2017-07-05T01:22:47.846Z,16.2
2017-07-05T01:23:50.308Z,16.2
2017-07-05T01:24:52.740Z,16.2
2017-07-05T01:25:55.190Z,16.2
2017-07-05T15:07:44.277Z,25.9
2017-07-05T15:08:47.243Z,26.1
2017-07-05T15:09:49.979Z,25.7
2017-07-05T15:10:52.518Z,25.5
2017-07-05T15:11:55.189Z,25
2017-07-05T15:12:57.835Z,25.1
2017-07-05T15:14:00.608Z,25
2017-07-05T15:15:03.297Z,25.1
2017-07-05T15:16:05.884Z,25.2
2017-07-05T15:17:08.596Z,24.7
2017-07-05T15:18:11.355Z,24.6
2017-07-05T15:19:14.173Z,24.8
2017-07-05T15:20:16.814Z,24.7
2017-07-05T15:21:19.776Z,25
2017-07-05T15:22:22.443Z,24.9
2017-07-05T15:23:25.150Z,25
2017-07-05T15:24:27.995Z,24.9
2017-07-05T15:25:30.908Z,24.7
2017-07-05T15:26:33.647Z,24.9
2017-07-05T15:27:36.406Z,25
2017-07-05T15:28:39.652Z,25.1
2017-07-05T15:29:42.326Z,24.7
2017-07-05T15:30:45.390Z,24.6
2017-07-05T15:31:48.214Z,24.6
2017-07-05T15:34:00.371Z,24.6
2017-07-05T15:35:03.045Z,24.7
2017-07-05T15:36:05.751Z,25
2017-07-05T15:37:08.281Z,25
2017-07-05T15:38:11.163Z,25
2017-07-05T15:39:14.082Z,24.5
2017-07-05T15:40:16.649Z,24.4
2017-07-05T15:41:19.708Z,24.6
2017-07-05T15:42:23.282Z,24.7
2017-07-05T15:43:27.669Z,24.2
2017-07-05T15:44:30.410Z,24.3
2017-07-05T15:45:32.997Z,24.3
2017-07-05T15:46:41.462Z,24.6
2017-07-05T15:47:44.123Z,24.7
2017-07-05T15:48:46.713Z,24.5
2017-07-05T15:49:49.395Z,24.5
2017-07-05T15:50:51.980Z,24.5
2017-07-05T15:51:54.513Z,24.3
2017-07-05T15:52:57.319Z,24.7
2017-07-05T15:54:00.559Z,24.8
2017-07-05T15:55:03.211Z,24.8
2017-07-05T15:56:05.929Z,24.7
2017-07-05T15:57:08.973Z,24.9
2017-07-05T15:58:17.615Z,24.6
2017-07-05T15:59:21.129Z,24.6
2017-07-05T16:00:23.830Z,24.8
2017-07-05T16:01:26.451Z,24.5
2017-07-05T16:02:29.430Z,24.8
2017-07-05T16:03:32.252Z,25.5
2017-07-05T16:04:34.962Z,25.6
2017-07-05T16:05:37.676Z,25.2
2017-07-05T16:06:42.395Z,24.7
2017-07-05T16:07:46.947Z,24.7
2017-07-05T16:08:49.872Z,24.6
2017-07-05T16:09:52.926Z,24.4
2017-07-05T16:10:55.667Z,24.5
2017-07-05T16:11:58.863Z,24.8
2017-07-05T16:13:01.795Z,24.8
2017-07-05T16:14:04.477Z,24.6
2017-07-05T16:15:07.300Z,24.3
2017-07-05T16:16:10.035Z,24.2
2017-07-05T16:17:12.782Z,24.4
2017-07-05T16:18:18.480Z,24.4
2017-07-05T16:19:22.694Z,24.5
2017-07-05T16:20:25.388Z,24.4
2017-07-05T16:21:28.042Z,24.6
2017-07-05T16:22:30.782Z,24.4
2017-07-05T16:23:33.394Z,24.3
2017-07-05T16:24:36.082Z,24.3
2017-07-05T16:25:38.655Z,24
2017-07-05T16:26:41.331Z,23.8
2017-07-05T16:27:44.522Z,23.8
2017-07-05T16:28:48.382Z,23.8
2017-07-05T16:29:51.157Z,24.1
2017-07-05T16:30:53.713Z,24.3
2017-07-05T16:31:56.348Z,24.3
2017-07-05T16:33:03.992Z,24.1
2017-07-05T16:34:06.592Z,24.1
2017-07-05T16:35:09.200Z,24.4
2017-07-05T16:36:11.852Z,24
2017-07-05T16:37:14.799Z,24.2
2017-07-05T16:38:17.444Z,23.8
2017-07-05T16:39:20.103Z,23.8
2017-07-05T16:40:22.626Z,23.7
2017-07-05T16:41:25.285Z,23.9
2017-07-05T16:42:29.972Z,23.8
2017-07-05T16:43:32.737Z,23.9
2017-07-05T16:44:35.442Z,23.7
2017-07-05T16:45:38.013Z,23.6
2017-07-05T16:46:40.630Z,23.7
2017-07-05T16:47:49.506Z,23.5
2017-07-05T16:48:52.109Z,23.9
2017-07-05T16:49:54.673Z,23.7
2017-07-05T16:50:57.291Z,23.9
2017-07-05T16:51:59.926Z,23.8
2017-07-05T16:53:02.569Z,23.6
2017-07-05T16:54:05.260Z,23.5
2017-07-05T16:55:07.937Z,23.7
2017-07-05T16:56:10.570Z,23.9
2017-07-05T16:57:13.251Z,23.8
2017-07-05T16:58:15.911Z,23.5
2017-07-05T16:59:18.488Z,23.5
2017-07-05T17:00:21.174Z,23.5
2017-07-05T17:01:24.023Z,23.5
2017-07-05T17:02:26.633Z,23.6
2017-07-05T17:03:29.198Z,23.7
2017-07-05T17:04:31.887Z,23.5
2017-07-05T17:05:34.401Z,23.4
2017-07-05T17:06:37.032Z,23.4
2017-07-05T17:07:39.640Z,23.3
2017-07-05T17:08:42.217Z,23.2
2017-07-05T17:09:44.767Z,23.2
2017-07-05T17:10:47.390Z,23.3
2017-07-05T17:11:50.090Z,23.3
2017-07-05T17:12:56.326Z,23.1
2017-07-05T17:13:59.710Z,23
2017-07-05T17:15:02.356Z,23
2017-07-05T17:16:04.979Z,23
2017-07-05T17:17:07.633Z,23
2017-07-05T17:18:10.220Z,22.9
2017-07-05T17:19:12.794Z,22.9
2017-07-05T17:20:15.555Z,22.8
2017-07-05T17:21:18.135Z,23
2017-07-05T17:22:20.805Z,22.9
2017-07-05T17:23:23.393Z,22.7
2017-07-05T17:24:26.065Z,22.9
2017-07-05T17:25:28.721Z,23
2017-07-05T17:26:31.322Z,23.1
2017-07-05T17:27:33.886Z,23
2017-07-05T17:28:36.462Z,23
2017-07-05T17:29:39.069Z,23
2017-07-05T17:30:41.640Z,22.9
2017-07-05T17:31:44.271Z,23.1
2017-07-05T17:32:46.864Z,23
2017-07-05T17:33:49.430Z,22.9
2017-07-05T17:34:52.084Z,22.9
2017-07-05T17:35:54.625Z,22.8
2017-07-05T17:36:57.233Z,22.9
2017-07-05T17:37:59.892Z,22.8
2017-07-05T17:39:02.514Z,22.8
2017-07-05T17:40:05.167Z,22.9
2017-07-05T17:41:07.744Z,22.9
2017-07-05T17:42:10.500Z,22.6
2017-07-05T17:43:13.171Z,22.7
2017-07-05T17:44:15.679Z,23
2017-07-05T17:45:18.519Z,22.9
2017-07-05T17:46:21.209Z,22.9
2017-07-05T17:47:23.799Z,22.8
2017-07-05T17:48:26.871Z,22.7
2017-07-05T17:49:29.738Z,22.8
2017-07-05T17:50:32.383Z,22.9
2017-07-05T17:51:34.935Z,22.9
2017-07-05T17:52:37.527Z,22.8
2017-07-05T17:53:40.175Z,23
2017-07-05T17:54:42.744Z,23
2017-07-05T17:55:45.336Z,22.8
2017-07-05T17:56:48.126Z,23.1
2017-07-05T17:57:50.706Z,22.9
2017-07-05T17:58:53.287Z,22.8
2017-07-05T17:59:55.867Z,22.7
2017-07-05T18:00:58.570Z,22.8
2017-07-05T18:02:01.293Z,22.8
2017-07-05T18:03:03.833Z,23
2017-07-05T18:04:06.485Z,22.9
2017-07-05T18:05:09.245Z,22.9
2017-07-05T18:06:11.905Z,22.8
2017-07-05T18:07:14.479Z,22.8
2017-07-05T18:08:17.086Z,22.8
2017-07-05T18:09:19.600Z,22.6
2017-07-05T18:10:22.225Z,22.7
2017-07-05T18:11:24.853Z,22.8
2017-07-05T18:12:27.334Z,22.9
2017-07-05T18:13:29.896Z,22.6
2017-07-05T18:14:32.434Z,22.6
2017-07-05T18:15:34.984Z,22.6
2017-07-05T18:16:37.585Z,22.7
2017-07-05T18:17:43.161Z,22.7
2017-07-05T18:18:45.832Z,22.5
2017-07-05T18:19:48.670Z,22.7
2017-07-05T18:20:51.245Z,22.6
2017-07-05T18:21:53.910Z,22.5
2017-07-05T18:22:56.521Z,22.4
2017-07-05T18:23:59.093Z,22.4
2017-07-05T18:25:01.786Z,22.5
2017-07-05T18:26:04.331Z,22.3
2017-07-05T18:27:06.835Z,22.1
2017-07-05T18:28:09.360Z,22.3
2017-07-05T18:29:12.045Z,22.3
2017-07-05T18:30:14.589Z,22.3
2017-07-05T18:31:17.118Z,22.4
2017-07-05T18:32:19.772Z,22
2017-07-05T18:33:22.288Z,22.3
2017-07-05T18:34:24.893Z,22.3
2017-07-05T18:35:27.401Z,22.2
2017-07-05T18:36:30.074Z,22.1
2017-07-05T18:37:32.567Z,22.1
2017-07-05T18:38:35.306Z,22.2
2017-07-05T18:39:37.842Z,22.2
2017-07-05T18:40:40.504Z,22
2017-07-05T18:41:43.044Z,22.1
2017-07-05T18:42:45.618Z,21.6
2017-07-05T18:43:48.187Z,21.9
2017-07-05T18:44:50.733Z,21.8
2017-07-05T18:45:53.240Z,21.9
2017-07-05T18:46:55.826Z,21.9
2017-07-05T18:47:58.386Z,21.9
2017-07-05T18:49:01.036Z,21.7
2017-07-05T18:50:03.574Z,21.8
2017-07-05T18:51:06.155Z,21.8
2017-07-05T18:52:08.652Z,21.8
2017-07-05T18:53:11.216Z,21.8
2017-07-05T18:54:13.786Z,21.7
2017-07-05T18:55:16.340Z,21.7
2017-07-05T18:56:18.938Z,21.7
2017-07-05T18:57:21.548Z,21.6
2017-07-05T18:58:24.129Z,21.5
2017-07-05T18:59:26.695Z,21.6
2017-07-05T19:00:29.295Z,21.7
2017-07-05T19:01:31.917Z,21.6
2017-07-05T19:02:34.497Z,21.6
2017-07-05T19:03:37.102Z,21.6
2017-07-05T19:04:39.707Z,21.3
2017-07-05T19:05:42.342Z,21.4
2017-07-05T19:06:44.886Z,21.5
2017-07-05T19:07:47.495Z,21.6
2017-07-05T19:08:50.061Z,21.7
2017-07-05T19:09:52.655Z,21.5
2017-07-05T19:10:55.759Z,21.3
2017-07-05T19:11:58.393Z,21.3
2017-07-05T19:13:01.376Z,21.3
2017-07-05T19:14:03.997Z,21.4
2017-07-05T19:15:06.552Z,21.2
2017-07-05T19:16:09.118Z,21.2
2017-07-05T19:17:11.830Z,21.2
2017-07-05T19:18:14.604Z,21.4
2017-07-05T19:19:17.214Z,21.4
2017-07-05T19:20:19.799Z,21.3
2017-07-05T19:21:22.439Z,21.1
2017-07-05T19:22:25.049Z,21
2017-07-05T19:23:27.667Z,21.1
2017-07-05T19:24:30.282Z,21.1
2017-07-05T19:25:32.878Z,20.8
2017-07-05T19:26:37.761Z,21
2017-07-05T19:27:40.570Z,21
2017-07-05T19:28:43.140Z,21
2017-07-05T19:29:45.683Z,20.9
2017-07-05T19:30:48.282Z,20.9
2017-07-05T19:31:50.807Z,20.9
2017-07-05T19:32:53.335Z,20.9
2017-07-05T19:33:55.927Z,20.8
2017-07-05T19:34:59.203Z,20.8
2017-07-05T19:36:01.780Z,20.8
2017-07-05T19:37:04.322Z,20.6
2017-07-05T19:38:06.919Z,20.6
2017-07-05T19:39:09.470Z,20.6
2017-07-05T19:40:11.988Z,20.5
2017-07-05T19:41:14.681Z,20.5
2017-07-05T19:42:17.392Z,20.3
2017-07-05T19:43:19.982Z,20.3
2017-07-05T19:44:22.574Z,20.4
2017-07-05T19:45:25.113Z,20.3
2017-07-05T19:46:27.619Z,20.3
2017-07-05T19:47:30.278Z,20.1
2017-07-05T19:48:32.833Z,20.3
2017-07-05T19:49:35.368Z,20.3
2017-07-05T19:50:38.186Z,20.1
2017-07-05T19:51:40.764Z,20.2
2017-07-05T19:52:43.288Z,20.2
2017-07-05T19:53:45.842Z,20.2
2017-07-05T19:54:48.385Z,20
2017-07-05T19:55:50.926Z,20
2017-07-05T19:56:53.470Z,20
2017-07-05T19:57:56.055Z,20.2
2017-07-05T19:58:58.618Z,20.3
2017-07-05T20:00:01.221Z,20
2017-07-05T20:01:03.745Z,20.1
2017-07-05T20:02:06.296Z,20.3
2017-07-05T20:03:08.811Z,20.2
2017-07-05T20:04:11.385Z,19.8
2017-07-05T20:05:13.970Z,20
2017-07-05T20:06:16.488Z,19.8
2017-07-05T20:07:19.022Z,20.1
2017-07-05T20:08:24.274Z,20
2017-07-05T20:09:27.117Z,20
2017-07-05T20:10:29.670Z,20
2017-07-05T20:11:32.165Z,19.9
2017-07-05T20:12:34.682Z,20
2017-07-05T20:13:37.257Z,20.1
2017-07-05T20:14:39.842Z,20.1
2017-07-05T20:15:42.473Z,20.2
2017-07-05T20:16:49.942Z,20.2
2017-07-05T20:17:52.654Z,20.3
2017-07-05T20:18:55.174Z,20.2
2017-07-05T20:19:57.790Z,20.2
2017-07-05T20:21:00.362Z,19.9
2017-07-05T20:22:02.934Z,20.1
2017-07-05T20:23:05.506Z,20.1
2017-07-05T20:24:08.090Z,20
2017-07-05T20:25:10.757Z,19.8
2017-07-05T20:26:13.374Z,19.9
2017-07-05T20:27:16.088Z,19.7
2017-07-05T20:28:18.603Z,19.5
2017-07-05T20:29:21.214Z,19.2
2017-07-05T20:30:23.794Z,19.4
2017-07-05T20:31:26.463Z,19.4
2017-07-05T20:32:28.947Z,19.3
2017-07-05T20:33:31.522Z,19.3
2017-07-05T20:34:34.075Z,19.4
2017-07-05T20:35:36.627Z,19.5
2017-07-05T20:36:39.113Z,19.4
2017-07-05T20:37:41.650Z,19.3
2017-07-05T20:38:45.698Z,19.5
2017-07-05T20:39:49.675Z,19.5
2017-07-05T20:40:52.916Z,19.5
2017-07-05T20:41:55.491Z,19.4
2017-07-05T20:42:58.056Z,19.3
2017-07-05T20:44:00.598Z,19
2017-07-05T20:45:03.128Z,19.1
2017-07-05T20:46:05.611Z,19.1
2017-07-05T20:47:08.059Z,19
2017-07-05T20:48:10.720Z,19
2017-07-05T20:49:13.445Z,18.9
2017-07-05T20:50:16.073Z,19
2017-07-05T20:51:19.245Z,18.8
2017-07-05T20:52:21.881Z,19
2017-07-05T20:53:24.410Z,19
2017-07-05T20:54:26.946Z,19
2017-07-05T20:55:29.493Z,18.9
2017-07-05T20:56:32.124Z,19
2017-07-05T20:57:34.613Z,19
2017-07-05T20:58:37.141Z,18.7
2017-07-05T20:59:39.602Z,18.5
2017-07-05T21:00:42.128Z,18.5
2017-07-05T21:01:44.793Z,18.4
2017-07-05T21:02:47.379Z,18.4
2017-07-05T21:03:49.916Z,18.3
2017-07-05T21:04:52.547Z,18.7
2017-07-05T21:05:55.065Z,18.8
2017-07-05T21:06:57.668Z,18.9
2017-07-05T21:08:00.252Z,18.9
2017-07-05T21:09:02.793Z,18.7
2017-07-05T21:10:05.280Z,18.8
2017-07-05T21:11:07.815Z,18.8
2017-07-05T21:12:10.371Z,18.9
2017-07-05T21:13:12.884Z,18.8
2017-07-05T21:14:15.494Z,18.6
2017-07-05T21:15:18.053Z,18.6
2017-07-05T21:16:20.603Z,18.6
2017-07-05T21:17:23.137Z,18.4
2017-07-05T21:18:25.669Z,18.4
2017-07-05T21:19:28.182Z,18.3
2017-07-05T21:20:30.734Z,18.5
2017-07-05T21:21:33.187Z,18.5
2017-07-05T21:22:35.669Z,18.2
2017-07-05T21:23:38.155Z,18.2
2017-07-05T21:24:40.768Z,18.1
2017-07-05T21:25:43.267Z,18.2
2017-07-05T21:26:45.791Z,18.2
2017-07-05T21:27:48.283Z,18.3
2017-07-05T21:28:50.852Z,18.3
2017-07-05T21:29:53.362Z,18
2017-07-05T21:30:55.836Z,18
2017-07-05T21:31:58.374Z,18
2017-07-05T21:33:00.956Z,18.1
2017-07-05T21:34:03.563Z,18.2
2017-07-05T21:35:06.139Z,18.3
2017-07-05T21:36:08.612Z,18.4
2017-07-05T21:37:11.098Z,18.5
2017-07-05T21:38:13.654Z,18.5
2017-07-05T21:39:16.439Z,18.6
2017-07-05T21:40:18.993Z,18.5
2017-07-05T21:41:21.548Z,18.4
2017-07-05T21:42:24.176Z,18.2
2017-07-05T21:43:26.780Z,18.2
2017-07-05T21:44:29.322Z,18.1
2017-07-05T21:45:32.031Z,18.4
2017-07-05T21:46:34.602Z,18.4
2017-07-05T21:47:37.139Z,18.3
2017-07-05T21:48:39.654Z,18.2
2017-07-05T21:49:42.404Z,18.2
2017-07-05T21:50:44.987Z,18.2
2017-07-05T21:51:47.520Z,18.2
2017-07-05T21:52:50.081Z,18.1
2017-07-05T21:53:52.602Z,18.3
2017-07-05T21:54:55.344Z,18.4
2017-07-05T21:55:58.177Z,18.3
2017-07-05T21:57:00.740Z,18.3
2017-07-05T21:58:03.398Z,18.4
2017-07-05T21:59:05.979Z,18.4
2017-07-05T22:00:08.495Z,18.3
2017-07-05T22:01:11.123Z,18.3
2017-07-05T22:02:13.663Z,18.2
2017-07-05T22:03:16.189Z,18.2
2017-07-05T22:04:18.690Z,18.1
2017-07-05T22:05:21.232Z,18.2
2017-07-05T22:06:23.952Z,18.2
2017-07-05T22:07:26.637Z,18
2017-07-05T22:08:29.093Z,18.1
2017-07-05T22:09:31.641Z,18.3
2017-07-05T22:10:34.196Z,18.4
2017-07-05T22:11:36.786Z,18.4
2017-07-05T22:12:39.260Z,18.2
2017-07-05T22:13:41.875Z,18.3
2017-07-05T22:14:44.768Z,18.3
2017-07-05T22:15:47.342Z,18.3
2017-07-05T22:16:49.857Z,18.1
2017-07-05T22:17:52.371Z,17.9
2017-07-05T22:18:54.905Z,18
2017-07-05T22:19:57.454Z,17.9
2017-07-05T22:21:00.012Z,17.8
2017-07-05T22:22:02.592Z,17.7
2017-07-05T22:23:05.177Z,17.6
2017-07-05T22:24:07.653Z,17.7
2017-07-05T22:25:10.304Z,17.5
2017-07-05T22:26:12.892Z,17.7
2017-07-05T22:27:15.392Z,17.7
2017-07-05T22:28:17.926Z,17.5
2017-07-05T22:29:20.550Z,17.6
2017-07-05T22:30:23.034Z,17.7
2017-07-05T22:31:25.616Z,17.6
2017-07-05T22:32:28.184Z,17.5
2017-07-05T22:33:30.789Z,17.6
2017-07-05T22:34:33.293Z,17.6
2017-07-05T22:35:35.831Z,17.7
2017-07-05T22:36:38.380Z,17.7
2017-07-05T22:37:40.890Z,17.5
2017-07-05T22:38:43.465Z,17.6
2017-07-05T22:39:45.963Z,17.7
2017-07-05T22:40:48.467Z,17.6
2017-07-05T22:41:50.999Z,17.8
2017-07-05T22:42:53.515Z,17.7
2017-07-05T22:43:56.209Z,17.6
2017-07-05T22:44:58.706Z,17.5
2017-07-05T22:46:01.278Z,17.4
2017-07-05T22:47:03.806Z,17.3
2017-07-05T22:48:06.398Z,17.3
2017-07-05T22:49:09.592Z,17.4
2017-07-05T22:50:12.163Z,17.6
2017-07-05T22:51:14.729Z,17.6
2017-07-05T22:52:17.214Z,17.7
2017-07-05T22:53:19.792Z,17.7
2017-07-05T22:54:22.326Z,17.5
2017-07-05T22:55:24.828Z,17.4
2017-07-05T22:56:27.374Z,17.3
2017-07-05T22:57:29.903Z,17.3
2017-07-05T22:58:32.444Z,17.1
2017-07-05T22:59:35.064Z,17.4
2017-07-05T23:00:37.632Z,17.4
2017-07-05T23:01:40.146Z,16.9
2017-07-05T23:02:42.636Z,17.1
2017-07-05T23:03:45.144Z,17.2
2017-07-05T23:04:47.634Z,17.5
2017-07-05T23:05:50.119Z,17.5
2017-07-05T23:06:52.620Z,17.5
2017-07-05T23:07:55.115Z,17.6
2017-07-05T23:08:57.626Z,17.7
2017-07-05T23:10:00.172Z,17.7
2017-07-05T23:11:02.667Z,17.7
2017-07-05T23:12:05.166Z,17.6
2017-07-05T23:13:07.662Z,17.5
2017-07-05T23:14:10.150Z,17.6
2017-07-05T23:15:12.716Z,17.6
2017-07-05T23:16:19.658Z,17.4
2017-07-05T23:17:22.724Z,17.7
2017-07-05T23:18:25.341Z,17.5
2017-07-05T23:19:27.838Z,17.5
2017-07-05T23:20:30.441Z,17.5
2017-07-05T23:21:32.936Z,17.5
2017-07-05T23:22:35.452Z,17.5
2017-07-05T23:23:37.988Z,17.4
2017-07-05T23:24:40.542Z,17.5
2017-07-05T23:25:43.032Z,17.6
2017-07-05T23:26:45.477Z,17.6
2017-07-05T23:27:47.926Z,17.8
2017-07-05T23:28:50.426Z,17.4
2017-07-05T23:29:52.890Z,17.4
2017-07-05T23:30:55.336Z,17.5
2017-07-05T23:31:57.819Z,17.6
2017-07-05T23:33:00.383Z,17.5
2017-07-05T23:34:02.835Z,17.1
2017-07-05T23:35:05.299Z,17
2017-07-05T23:36:07.747Z,17.3
2017-07-05T23:37:10.206Z,17.5
2017-07-05T23:38:12.703Z,17.4
2017-07-05T23:39:15.196Z,17.1
2017-07-05T23:40:17.930Z,17.2
2017-07-05T23:41:20.368Z,17.1
2017-07-05T23:42:22.855Z,17.1
2017-07-05T23:43:25.309Z,17.2
2017-07-05T23:44:27.755Z,17.2
2017-07-05T23:45:30.247Z,17.2
2017-07-05T23:46:32.731Z,17.2
2017-07-05T23:47:35.204Z,17.4
2017-07-05T23:48:37.761Z,17.2
2017-07-05T23:49:40.245Z,17.1
2017-07-05T23:50:42.941Z,17.2
2017-07-05T23:51:45.672Z,17.3
2017-07-05T23:52:48.130Z,17.4
2017-07-05T23:53:50.627Z,17.5
2017-07-05T23:54:53.140Z,17.5
2017-07-05T23:55:55.654Z,17.4
2017-07-05T23:56:58.119Z,17.4
2017-07-05T23:58:00.642Z,17.1
2017-07-05T23:59:03.292Z,17.3
